Trans Exeter — 9HA2572 — position and weather

sailwx.info

Track history (hours):
 
Tides and Currents Weather Stations Pressure Air Temp Water Temp Dewpoint Dewpoint Depression Visibility Wind Speed Wind Dir Waves Ship Positions

Trans Exeter

Last reported at 2014-Oct-21 05:20 UTC. Time now 2014-Oct-22 12:19 UTC.
Position N 40°46' E 029°33'.

Length 118 m; draft 7.7 m.

Type: Ship (hazmat cat C). MMSI: 248908000.

Date/timePositionNaut miles runAvg speedWind from/ knotsBaromVisibWave heightAir tempDewpointWater temp
2014-Oct-21 05:20N 40°46' E 029°33'4 0.5
2014-Oct-20 21:13N 40°46' E 029°38'6 6.8
2014-Oct-20 20:17N 40°45' E 029°30'7 9.2
2014-Oct-20 19:33N 40°43' E 029°21'1211.7
2014-Oct-20 18:33N 40°43' E 029°06'1413.7
2014-Oct-20 17:32N 40°43' E 028°48'13711.3
2014-Oct-20 05:20N 39°56' E 025°58'19 6.8
2014-Oct-20 02:29N 39°40' E 025°44'54511.3
2014-Oct-18 02:07N 36°32' E 014°54'814.0
2014-Oct-18 01:33N 36°35' E 014°45'1414.3
2014-Oct-18 00:33N 36°39' E 014°28'1515.0
2014-Oct-17 23:34N 36°46' E 014°11'1514.9
2014-Oct-17 22:34N 36°53' E 013°55'1514.6
2014-Oct-17 21:34N 37°00' E 013°39'3414.2
2014-Oct-17 19:08N 37°17' E 013°01'9214.0
2014-Oct-17 12:33N 37°36' E 011°08'1514.6
2014-Oct-17 11:33N 37°35' E 010°49'1414.7
2014-Oct-17 10:33N 37°34' E 010°31'3015.1
2014-Oct-17 08:32N 37°32' E 009°53'1515.4
2014-Oct-17 07:33N 37°27' E 009°34'71714.6
2014-Oct-15 06:28N 35°59' W 005°13'  
2014-Oct-11 08:16N 50°34' E 000°14'913.1
2014-Oct-11 07:33N 50°37' E 000°29'1413.9
2014-Oct-11 06:33N 50°44' E 000°47'  
Track history (hours):
 
Tides and Currents Weather Stations Pressure Air Temp Water Temp Dewpoint Dewpoint Depression Visibility Wind Speed Wind Dir Waves Ship Positions

Trans Exeter

Last reported at 2014-Oct-21 05:20 UTC. Time now 2014-Oct-22 12:19 UTC.
Position N 40°46' E 029°33'.

Length 118 m; draft 7.7 m.

Type: Ship (hazmat cat C). MMSI: 248908000.

Date/timePositionNaut miles runAvg speedWind from/ knotsBaromVisibWave heightAir tempDewpointWater temp
2014-Oct-21 05:20N 40°46' E 029°33'4 0.5
2014-Oct-20 21:13N 40°46' E 029°38'6 6.8
2014-Oct-20 20:17N 40°45' E 029°30'7 9.2
2014-Oct-20 19:33N 40°43' E 029°21'1211.7
2014-Oct-20 18:33N 40°43' E 029°06'1413.7
2014-Oct-20 17:32N 40°43' E 028°48'13711.3
2014-Oct-20 05:20N 39°56' E 025°58'19 6.8
2014-Oct-20 02:29N 39°40' E 025°44'54511.3
2014-Oct-18 02:07N 36°32' E 014°54'814.0
2014-Oct-18 01:33N 36°35' E 014°45'1414.3
2014-Oct-18 00:33N 36°39' E 014°28'1515.0
2014-Oct-17 23:34N 36°46' E 014°11'1514.9
2014-Oct-17 22:34N 36°53' E 013°55'1514.6
2014-Oct-17 21:34N 37°00' E 013°39'3414.2
2014-Oct-17 19:08N 37°17' E 013°01'9214.0
2014-Oct-17 12:33N 37°36' E 011°08'1514.6
2014-Oct-17 11:33N 37°35' E 010°49'1414.7
2014-Oct-17 10:33N 37°34' E 010°31'3015.1
2014-Oct-17 08:32N 37°32' E 009°53'1515.4
2014-Oct-17 07:33N 37°27' E 009°34'71714.6
2014-Oct-15 06:28N 35°59' W 005°13'  
2014-Oct-11 08:16N 50°34' E 000°14'913.1
2014-Oct-11 07:33N 50°37' E 000°29'1413.9
2014-Oct-11 06:33N 50°44' E 000°47'  

Dump ship's entire track history